Time;durP1;ratioP1;P1;durP2;ratioP2;P2;SDS_P1;SDS_P2;PMS_P1;PMS_P2;Temp;Humidity;BMP_temperature;BMP_pressure;BME280_temperature;BME280_humidity;BME280_pressure;Samples;Min_cycle;Max_cycle;Signal;HPM_P1;HPM_P2
2023/07/30 00:01:54;;;;;;;15.85;3.70;;;18.60;75.90;;;;;;5054162;28;20037;-69
2023/07/30 00:04:20;;;;;;;8.48;3.78;;;18.60;76.00;;;;;;5052356;28;20100;-69
2023/07/30 00:06:46;;;;;;;10.40;3.42;;;18.60;76.00;;;;;;5054779;28;20025;-69
2023/07/30 00:09:12;;;;;;;8.43;3.30;;;18.60;76.00;;;;;;5054784;28;20047;-69
2023/07/30 00:11:38;;;;;;;7.05;2.92;;;18.60;76.00;;;;;;5052314;28;20033;-69
2023/07/30 00:14:04;;;;;;;8.02;3.05;;;18.60;76.10;;;;;;5053111;28;20040;-69
2023/07/30 00:16:30;;;;;;;9.07;3.42;;;18.60;76.00;;;;;;5042290;28;20025;-69
2023/07/30 00:18:56;;;;;;;11.88;3.67;;;18.60;75.90;;;;;;5051321;28;20091;-69
2023/07/30 00:21:22;;;;;;;7.53;3.25;;;18.50;75.80;;;;;;5039249;28;20099;-69
2023/07/30 00:23:48;;;;;;;8.68;3.20;;;18.50;75.70;;;;;;5048776;28;20032;-69
2023/07/30 00:26:14;;;;;;;7.97;3.40;;;18.50;75.60;;;;;;5039278;28;20021;-69
2023/07/30 00:28:40;;;;;;;7.47;3.20;;;18.60;75.60;;;;;;5037948;28;20029;-69
2023/07/30 00:31:06;;;;;;;9.77;3.38;;;18.60;75.50;;;;;;5040283;28;20028;-69
2023/07/30 00:33:31;;;;;;;5.88;2.55;;;18.60;75.50;;;;;;5050661;28;20111;-69
2023/07/30 00:35:57;;;;;;;7.90;2.85;;;18.50;75.40;;;;;;5033646;28;20065;-69
2023/07/30 00:38:23;;;;;;;8.85;3.15;;;18.50;75.40;;;;;;5049561;28;20037;-69
2023/07/30 00:40:49;;;;;;;7.43;3.42;;;18.50;75.30;;;;;;5052948;28;20049;-69
2023/07/30 00:43:15;;;;;;;7.20;3.47;;;18.50;75.30;;;;;;5052309;28;20024;-69
2023/07/30 00:45:43;;;;;;;9.48;2.90;;;18.50;75.20;;;;;;5048897;28;20055;-69
2023/07/30 00:48:11;;;;;;;7.07;2.63;;;18.50;75.20;;;;;;5053947;28;20098;-69
2023/07/30 00:50:38;;;;;;;10.45;3.38;;;18.50;75.10;;;;;;5053466;28;20021;-69
2023/07/30 00:53:04;;;;;;;7.70;3.22;;;18.40;75.00;;;;;;5050214;28;20084;-69
2023/07/30 00:55:30;;;;;;;8.55;3.03;;;18.40;75.10;;;;;;5050992;28;20025;-69
2023/07/30 00:57:57;;;;;;;6.72;2.88;;;18.40;75.10;;;;;;5046834;28;20037;-69
2023/07/30 01:00:24;;;;;;;7.72;3.33;;;18.40;75.00;;;;;;5048740;28;20128;-69
2023/07/30 01:02:51;;;;;;;7.28;2.65;;;18.40;75.00;;;;;;5046672;28;20405;-69
2023/07/30 01:05:17;;;;;;;6.85;2.95;;;18.40;75.00;;;;;;5040396;28;20412;-69
2023/07/30 01:07:43;;;;;;;5.93;2.88;;;18.40;75.00;;;;;;5048848;28;20029;-69
2023/07/30 01:10:09;;;;;;;7.68;2.58;;;18.30;74.90;;;;;;5047048;28;20017;-69
2023/07/30 01:12:36;;;;;;;5.43;2.70;;;18.30;74.90;;;;;;5041749;28;20057;-69
2023/07/30 01:15:04;;;;;;;7.75;2.72;;;18.30;74.80;;;;;;5049903;28;20166;-69
2023/07/30 01:17:30;;;;;;;8.15;2.80;;;18.30;74.90;;;;;;5054242;28;20075;-69
2023/07/30 01:19:56;;;;;;;8.98;2.95;;;18.30;74.80;;;;;;5051723;28;20119;-69
2023/07/30 01:22:23;;;;;;;12.10;3.30;;;18.30;74.90;;;;;;5053483;28;20065;-69
2023/07/30 01:24:49;;;;;;;8.05;3.58;;;18.20;74.80;;;;;;5048620;28;20033;-69
2023/07/30 01:27:23;;;;;;;6.57;2.85;;;18.20;74.80;;;;;;5042602;28;20400;-69
2023/07/30 01:29:56;;;;;;;8.68;3.03;;;18.20;74.70;;;;;;5036534;28;20128;-69
2023/07/30 01:32:28;;;;;;;7.03;2.85;;;18.20;74.80;;;;;;5042230;28;20028;-69
2023/07/30 01:34:56;;;;;;;8.05;2.72;;;18.20;74.80;;;;;;5049811;28;20119;-69
2023/07/30 01:37:23;;;;;;;7.63;3.58;;;18.20;74.80;;;;;;5030680;28;20068;-69
2023/07/30 01:39:50;;;;;;;7.72;3.15;;;18.20;74.80;;;;;;5051457;28;20041;-69
2023/07/30 01:42:16;;;;;;;8.35;3.45;;;18.20;74.70;;;;;;5041656;28;20384;-69
2023/07/30 01:44:42;;;;;;;7.15;3.08;;;18.20;74.70;;;;;;5045905;28;20025;-69
2023/07/30 01:47:07;;;;;;;7.88;3.15;;;18.10;74.80;;;;;;5039089;28;20036;-69
2023/07/30 01:49:33;;;;;;;8.77;3.15;;;18.20;74.90;;;;;;5053088;28;20037;-69
2023/07/30 01:51:59;;;;;;;8.30;2.97;;;18.20;74.90;;;;;;5051401;28;20037;-70
2023/07/30 01:54:25;;;;;;;7.97;3.40;;;18.20;74.80;;;;;;5051634;28;20292;-69
2023/07/30 01:56:52;;;;;;;8.30;3.75;;;18.20;74.80;;;;;;5049190;28;20037;-69
2023/07/30 01:59:18;;;;;;;11.88;3.33;;;18.10;74.90;;;;;;5052905;28;20025;-69
2023/07/30 02:01:44;;;;;;;8.75;3.55;;;18.10;74.90;;;;;;5036092;28;20347;-69
2023/07/30 02:04:10;;;;;;;7.18;3.08;;;18.10;74.90;;;;;;5034574;28;20025;-69
2023/07/30 02:06:36;;;;;;;9.68;3.80;;;18.10;74.80;;;;;;5044586;28;20103;-69
2023/07/30 02:09:02;;;;;;;10.13;3.55;;;18.10;74.80;;;;;;5034676;28;20133;-69
2023/07/30 02:11:28;;;;;;;10.63;3.30;;;18.10;74.80;;;;;;5034111;28;20056;-69
2023/07/30 02:13:54;;;;;;;8.40;3.50;;;18.10;74.90;;;;;;5036704;28;20026;-69
2023/07/30 02:16:20;;;;;;;9.80;3.22;;;18.10;74.90;;;;;;5060923;28;20328;-69
2023/07/30 02:18:46;;;;;;;9.05;3.90;;;18.10;74.90;;;;;;5055636;28;20029;-69
2023/07/30 02:21:12;;;;;;;9.05;3.45;;;18.10;74.80;;;;;;5046800;28;20365;-69
2023/07/30 02:23:39;;;;;;;8.80;3.38;;;18.10;74.80;;;;;;5045402;28;20017;-69
2023/07/30 02:26:05;;;;;;;11.45;3.97;;;18.10;74.80;;;;;;5051668;28;20032;-69
2023/07/30 02:28:30;;;;;;;8.77;3.80;;;18.10;74.80;;;;;;5054984;28;20079;-69
2023/07/30 02:30:56;;;;;;;9.63;3.75;;;18.10;74.60;;;;;;5056855;28;20115;-69
2023/07/30 02:33:22;;;;;;;7.20;3.47;;;18.10;74.70;;;;;;5043452;28;20108;-69
2023/07/30 02:35:48;;;;;;;9.98;3.40;;;18.10;74.70;;;;;;5048301;28;20029;-69
2023/07/30 02:38:14;;;;;;;9.10;3.70;;;18.10;74.80;;;;;;5051488;28;20377;-69
2023/07/30 02:40:40;;;;;;;13.02;3.75;;;18.10;74.80;;;;;;5045046;28;20033;-69
2023/07/30 02:43:06;;;;;;;10.63;4.20;;;18.10;74.80;;;;;;5053585;28;20021;-69
2023/07/30 02:45:32;;;;;;;11.25;4.05;;;18.10;74.80;;;;;;5035321;28;20064;-69
2023/07/30 02:47:57;;;;;;;7.63;3.15;;;18.10;74.80;;;;;;5052037;28;20108;-69
2023/07/30 02:50:23;;;;;;;8.90;3.47;;;18.10;74.80;;;;;;5051501;28;20022;-69
2023/07/30 02:52:49;;;;;;;10.57;3.30;;;18.10;74.90;;;;;;5053898;28;20477;-69
2023/07/30 02:55:16;;;;;;;9.27;2.88;;;18.10;75.00;;;;;;5055376;28;20033;-69
2023/07/30 02:57:42;;;;;;;9.10;3.35;;;18.10;75.00;;;;;;5053621;28;20025;-69
2023/07/30 03:00:08;;;;;;;9.43;3.65;;;18.10;75.00;;;;;;5057077;28;20024;-69
2023/07/30 03:02:34;;;;;;;10.13;3.90;;;18.10;75.00;;;;;;5054573;28;20231;-69
2023/07/30 03:05:00;;;;;;;9.40;3.55;;;18.10;75.00;;;;;;5029957;28;20024;-69
2023/07/30 03:07:26;;;;;;;10.77;3.70;;;18.10;75.10;;;;;;5048964;28;20052;-69
2023/07/30 03:09:52;;;;;;;15.25;3.97;;;18.10;75.10;;;;;;5052379;28;20029;-69
2023/07/30 03:12:18;;;;;;;10.93;3.90;;;18.10;75.10;;;;;;5049899;28;20036;-69
2023/07/30 03:14:43;;;;;;;9.13;3.72;;;18.10;75.10;;;;;;5059359;28;20025;-69
2023/07/30 03:17:09;;;;;;;11.70;3.63;;;18.20;75.30;;;;;;5054297;28;20458;-69
2023/07/30 03:19:35;;;;;;;11.63;4.03;;;18.10;75.30;;;;;;5040985;28;20080;-69
2023/07/30 03:22:01;;;;;;;9.73;3.55;;;18.10;75.40;;;;;;5035908;28;20032;-69
2023/07/30 03:24:27;;;;;;;9.35;4.18;;;18.10;75.60;;;;;;5047868;28;20017;-69
2023/07/30 03:26:52;;;;;;;11.77;4.00;;;18.10;75.70;;;;;;5053181;28;20013;-69
2023/07/30 03:29:18;;;;;;;10.65;4.15;;;18.10;75.70;;;;;;5053254;28;20063;-69
2023/07/30 03:31:44;;;;;;;10.05;4.07;;;18.10;76.40;;;;;;5055289;28;20453;-69
2023/07/30 03:34:09;;;;;;;11.07;4.50;;;18.10;75.70;;;;;;5050133;28;20037;-69
2023/07/30 03:36:35;;;;;;;12.27;4.65;;;18.10;75.70;;;;;;5050346;28;20017;-69
2023/07/30 03:39:01;;;;;;;11.40;3.72;;;18.10;75.80;;;;;;5053080;28;20405;-69
2023/07/30 03:41:27;;;;;;;10.20;4.30;;;18.10;75.90;;;;;;5055701;28;20480;-69
2023/07/30 03:43:52;;;;;;;12.85;4.60;;;18.10;75.90;;;;;;5049818;28;20051;-69
2023/07/30 03:46:20;;;;;;;11.13;4.32;;;18.10;76.00;;;;;;5047162;28;20036;-69
2023/07/30 03:48:45;;;;;;;10.77;4.25;;;18.10;76.10;;;;;;5049701;28;20036;-69
2023/07/30 03:51:11;;;;;;;12.93;4.65;;;18.10;76.10;;;;;;5054031;28;20025;-69
2023/07/30 03:53:37;;;;;;;10.50;4.75;;;18.10;76.10;;;;;;5052037;28;20025;-69
2023/07/30 03:56:03;;;;;;;9.20;4.25;;;18.10;76.20;;;;;;5037705;28;20389;-69
2023/07/30 03:58:30;;;;;;;12.02;4.50;;;18.10;76.20;;;;;;5052335;28;20094;-69
2023/07/30 04:00:57;;;;;;;9.57;4.80;;;18.10;76.20;;;;;;5050243;28;20029;-69
2023/07/30 04:03:22;;;;;;;15.05;5.57;;;18.10;76.20;;;;;;5042553;28;20056;-69
2023/07/30 04:05:48;;;;;;;14.05;5.10;;;18.10;76.40;;;;;;5053620;28;20021;-69
2023/07/30 04:08:16;;;;;;;13.60;4.93;;;18.10;76.40;;;;;;5048490;28;20115;-69
2023/07/30 04:10:42;;;;;;;11.38;4.30;;;18.10;76.40;;;;;;5042940;28;20119;-69
2023/07/30 04:13:07;;;;;;;14.57;5.43;;;18.10;76.40;;;;;;5041126;28;20419;-69
2023/07/30 04:15:34;;;;;;;12.45;5.07;;;18.20;76.40;;;;;;5044111;28;20041;-69
2023/07/30 04:17:59;;;;;;;12.63;5.15;;;18.10;76.40;;;;;;5047646;28;20029;-69
2023/07/30 04:20:25;;;;;;;14.25;5.70;;;18.20;76.50;;;;;;5051185;28;20074;-69
2023/07/30 04:22:51;;;;;;;12.23;5.80;;;18.10;76.40;;;;;;5039728;28;20018;-69
2023/07/30 04:25:18;;;;;;;10.23;5.30;;;18.20;77.20;;;;;;5046324;28;20036;-68
2023/07/30 04:27:44;;;;;;;13.95;5.07;;;18.20;76.70;;;;;;5041694;28;20241;-69
2023/07/30 04:30:10;;;;;;;13.75;5.63;;;18.10;76.70;;;;;;5047514;28;20025;-68
2023/07/30 04:32:36;;;;;;;11.00;5.10;;;18.20;76.80;;;;;;5045192;28;20025;-68
2023/07/30 04:35:02;;;;;;;18.15;5.80;;;18.20;76.80;;;;;;5028989;28;20433;-69
2023/07/30 04:37:28;;;;;;;12.90;5.72;;;18.10;76.80;;;;;;5041171;28;20355;-69
2023/07/30 04:39:54;;;;;;;13.95;5.60;;;18.20;76.90;;;;;;5036411;28;20028;-69
2023/07/30 04:42:20;;;;;;;15.68;5.82;;;18.20;77.00;;;;;;5044384;28;20725;-69
2023/07/30 04:44:47;;;;;;;12.52;6.03;;;18.20;76.90;;;;;;5022692;28;20021;-69
2023/07/30 04:47:15;;;;;;;14.48;6.07;;;18.20;77.00;;;;;;5044080;28;20120;-69
2023/07/30 04:49:41;;;;;;;14.60;5.65;;;18.20;77.00;;;;;;5041743;28;20120;-69
2023/07/30 04:52:10;;;;;;;13.07;5.35;;;18.30;77.10;;;;;;5041239;28;20044;-68
2023/07/30 04:54:36;;;;;;;12.43;4.97;;;18.30;77.20;;;;;;5049243;28;20395;-69
2023/07/30 04:57:02;;;;;;;11.93;5.65;;;18.30;77.20;;;;;;5039911;28;20057;-68
2023/07/30 04:59:28;;;;;;;13.77;6.15;;;18.30;77.20;;;;;;5029119;28;20454;-68
2023/07/30 05:01:54;;;;;;;14.48;5.60;;;18.30;77.90;;;;;;5040802;28;20025;-69
2023/07/30 05:04:20;;;;;;;11.95;6.00;;;18.30;77.30;;;;;;5048742;28;20036;-68
2023/07/30 05:06:45;;;;;;;18.05;6.13;;;18.30;77.30;;;;;;5029660;28;20013;-69
2023/07/30 05:09:12;;;;;;;14.07;6.75;;;18.30;77.40;;;;;;5044413;28;20032;-69
2023/07/30 05:11:38;;;;;;;15.18;6.55;;;18.40;77.40;;;;;;5048197;28;20037;-69
2023/07/30 05:14:04;;;;;;;14.52;6.53;;;18.40;77.40;;;;;;5048075;28;20174;-69
2023/07/30 05:16:30;;;;;;;17.13;6.38;;;18.40;77.30;;;;;;5050944;28;20151;-69
2023/07/30 05:18:56;;;;;;;15.85;6.05;;;18.40;77.40;;;;;;5044980;28;20059;-69
2023/07/30 05:21:21;;;;;;;16.30;6.68;;;18.40;77.40;;;;;;5049945;28;20035;-69
2023/07/30 05:23:47;;;;;;;11.85;5.88;;;18.50;77.40;;;;;;5044903;28;20075;-69
2023/07/30 05:26:13;;;;;;;15.40;6.85;;;18.50;77.30;;;;;;5029413;28;20164;-69
2023/07/30 05:28:39;;;;;;;12.77;6.50;;;18.60;77.30;;;;;;5051559;28;20115;-69
2023/07/30 05:31:04;;;;;;;14.02;6.82;;;18.60;77.30;;;;;;5045201;28;20453;-69
2023/07/30 05:33:30;;;;;;;15.27;6.28;;;18.60;77.20;;;;;;5049753;28;20021;-69
2023/07/30 05:35:56;;;;;;;15.80;6.18;;;18.60;77.20;;;;;;5048148;28;20111;-69
2023/07/30 05:38:22;;;;;;;16.50;7.20;;;18.60;77.40;;;;;;5048473;28;20029;-69
2023/07/30 05:40:47;;;;;;;14.95;7.80;;;18.60;77.40;;;;;;5046221;28;20935;-69
2023/07/30 05:43:13;;;;;;;12.80;6.53;;;18.60;77.30;;;;;;5049505;28;20024;-69
2023/07/30 05:45:39;;;;;;;17.98;7.72;;;18.70;77.30;;;;;;5049851;28;20047;-69
2023/07/30 05:48:05;;;;;;;15.32;6.80;;;18.70;77.20;;;;;;5046436;28;20035;-69
2023/07/30 05:50:30;;;;;;;14.15;6.63;;;18.70;77.20;;;;;;5055524;28;20090;-69
2023/07/30 05:52:56;;;;;;;14.30;7.68;;;18.70;77.20;;;;;;5056152;28;20059;-69
2023/07/30 05:55:22;;;;;;;18.30;8.05;;;18.80;77.20;;;;;;5050748;28;20020;-69
2023/07/30 05:57:48;;;;;;;15.60;8.00;;;18.80;77.20;;;;;;5051741;28;20446;-68
2023/07/30 06:00:13;;;;;;;16.27;7.82;;;18.80;77.20;;;;;;5046602;28;20108;-68
2023/07/30 06:02:39;;;;;;;16.77;8.23;;;18.80;77.00;;;;;;5047671;28;20044;-68
2023/07/30 06:05:05;;;;;;;14.82;7.63;;;18.90;77.10;;;;;;5048008;28;20033;-67
2023/07/30 06:07:31;;;;;;;17.13;7.97;;;18.90;77.10;;;;;;5051320;28;20132;-67
2023/07/30 06:09:56;;;;;;;16.55;8.02;;;18.90;77.10;;;;;;5051129;28;20028;-67
2023/07/30 06:12:22;;;;;;;15.57;7.25;;;19.00;77.20;;;;;;5049619;28;20063;-67
2023/07/30 06:14:48;;;;;;;16.20;7.65;;;18.90;77.10;;;;;;5052974;28;20041;-66
2023/07/30 06:17:14;;;;;;;14.77;7.55;;;19.00;77.20;;;;;;5050778;28;20041;-67
2023/07/30 06:19:39;;;;;;;15.13;8.02;;;18.90;77.20;;;;;;5054173;28;20029;-67
2023/07/30 06:22:05;;;;;;;15.18;7.78;;;19.00;77.30;;;;;;5053124;28;20408;-67
2023/07/30 06:24:31;;;;;;;18.42;7.95;;;19.00;77.20;;;;;;5051540;28;20033;-67
2023/07/30 06:26:57;;;;;;;18.42;7.70;;;19.00;77.20;;;;;;5038413;28;20025;-66
2023/07/30 06:29:22;;;;;;;20.58;9.20;;;19.10;77.20;;;;;;5049684;28;20013;-67
2023/07/30 06:31:49;;;;;;;16.27;8.32;;;19.10;77.20;;;;;;5049548;28;20367;-67
2023/07/30 06:34:14;;;;;;;19.55;8.27;;;19.10;77.20;;;;;;5047419;28;20028;-67
2023/07/30 06:36:40;;;;;;;15.98;7.88;;;19.10;77.20;;;;;;5054374;28;20342;-67
2023/07/30 06:39:06;;;;;;;16.63;8.50;;;19.10;77.20;;;;;;5032820;28;20481;-67
2023/07/30 06:41:32;;;;;;;16.10;8.55;;;19.10;77.20;;;;;;5050228;28;20024;-67
2023/07/30 06:43:58;;;;;;;14.60;7.93;;;19.20;77.20;;;;;;5041779;28;20569;-67
2023/07/30 06:46:23;;;;;;;17.33;8.70;;;19.20;77.30;;;;;;5050814;28;20043;-67
2023/07/30 06:48:49;;;;;;;16.08;7.68;;;19.20;77.30;;;;;;5048621;28;20025;-67
2023/07/30 06:51:19;;;;;;;17.33;8.45;;;19.30;77.40;;;;;;5054215;28;20039;-67
2023/07/30 06:53:45;;;;;;;19.08;8.98;;;19.30;77.30;;;;;;5046809;28;20956;-67
2023/07/30 06:56:10;;;;;;;16.75;8.55;;;19.40;77.10;;;;;;5028179;28;20025;-67
2023/07/30 06:58:36;;;;;;;14.77;7.90;;;19.50;77.00;;;;;;5050025;28;20025;-67
2023/07/30 07:01:02;;;;;;;18.48;7.85;;;19.50;76.80;;;;;;5035074;28;20115;-67
2023/07/30 07:03:28;;;;;;;15.80;7.90;;;19.60;76.70;;;;;;5048248;28;20043;-67
2023/07/30 07:05:55;;;;;;;17.63;7.43;;;19.60;76.50;;;;;;5049707;28;20029;-66
2023/07/30 07:08:21;;;;;;;20.05;7.80;;;19.60;76.50;;;;;;5053028;28;20140;-66
2023/07/30 07:10:47;;;;;;;15.85;8.15;;;19.60;76.40;;;;;;5045828;28;20033;-66
2023/07/30 07:13:15;;;;;;;13.10;6.55;;;19.60;76.30;;;;;;5043300;28;20067;-66
2023/07/30 07:15:44;;;;;;;15.40;7.88;;;19.70;76.30;;;;;;5053141;28;20115;-67
2023/07/30 07:18:10;;;;;;;15.75;7.95;;;19.80;76.20;;;;;;5044681;28;20116;-67
2023/07/30 07:20:37;;;;;;;17.60;7.65;;;19.80;76.00;;;;;;5034230;28;20043;-67
2023/07/30 07:23:03;;;;;;;17.40;8.50;;;19.90;76.00;;;;;;5053614;28;20048;-67
2023/07/30 07:25:28;;;;;;;16.70;8.10;;;20.00;75.80;;;;;;5045540;28;20026;-67
2023/07/30 07:27:54;;;;;;;16.25;8.23;;;20.10;75.60;;;;;;5051457;28;20473;-67
2023/07/30 07:30:20;;;;;;;17.50;8.63;;;20.20;75.20;;;;;;5050413;28;20027;-67
2023/07/30 07:32:50;;;;;;;18.10;8.27;;;20.30;74.80;;;;;;5052773;28;20031;-67
2023/07/30 07:35:16;;;;;;;15.93;8.45;;;20.40;74.70;;;;;;5044728;28;20118;-67
2023/07/30 07:37:43;;;;;;;17.25;7.82;;;20.40;74.50;;;;;;5045798;28;20223;-67
2023/07/30 07:40:09;;;;;;;14.60;7.57;;;20.40;74.40;;;;;;5050865;28;20029;-67
2023/07/30 07:42:36;;;;;;;14.60;7.90;;;20.40;74.40;;;;;;5048273;28;20438;-67
2023/07/30 07:45:01;;;;;;;12.80;7.32;;;20.40;74.20;;;;;;5050408;28;20032;-67
2023/07/30 07:47:27;;;;;;;16.00;7.32;;;20.50;74.00;;;;;;5047154;28;20029;-67
2023/07/30 07:49:53;;;;;;;13.38;7.63;;;20.70;73.90;;;;;;5044135;28;20104;-67
2023/07/30 07:52:20;;;;;;;18.35;7.18;;;20.70;73.50;;;;;;5042566;28;20458;-65
2023/07/30 07:54:46;;;;;;;15.45;7.50;;;20.80;73.40;;;;;;5037684;28;20040;-66
2023/07/30 07:57:12;;;;;;;14.82;6.72;;;20.80;73.30;;;;;;5050463;28;20040;-66
2023/07/30 07:59:37;;;;;;;11.55;6.50;;;20.70;73.30;;;;;;5048479;28;20021;-67
2023/07/30 08:02:03;;;;;;;15.00;6.30;;;20.70;73.20;;;;;;5041059;28;20335;-67
2023/07/30 08:04:29;;;;;;;12.68;6.00;;;20.60;73.00;;;;;;5043116;28;20032;-66
2023/07/30 08:06:59;;;;;;;15.63;6.35;;;20.60;72.90;;;;;;5043448;28;20021;-66
2023/07/30 08:09:25;;;;;;;10.98;5.45;;;20.50;72.80;;;;;;5045922;28;20128;-66
2023/07/30 08:11:51;;;;;;;12.52;5.38;;;20.50;72.80;;;;;;5041332;28;20113;-66
2023/07/30 08:14:17;;;;;;;13.27;5.05;;;20.40;72.90;;;;;;5043009;28;20365;-66
2023/07/30 08:16:42;;;;;;;13.55;5.47;;;20.40;73.00;;;;;;5043218;28;20474;-66
2023/07/30 08:19:08;;;;;;;17.95;5.88;;;20.40;73.00;;;;;;5049912;28;20036;-67
2023/07/30 08:21:34;;;;;;;13.32;5.60;;;20.40;73.00;;;;;;5045905;28;20033;-66
2023/07/30 08:23:59;;;;;;;12.70;5.53;;;20.50;72.90;;;;;;5044025;28;20119;-66
2023/07/30 08:26:25;;;;;;;11.70;5.72;;;20.60;72.70;;;;;;5041397;28;20018;-66
2023/07/30 08:28:51;;;;;;;12.55;5.43;;;20.80;72.50;;;;;;5030140;28;20132;-66
2023/07/30 08:31:16;;;;;;;11.85;5.45;;;20.90;72.20;;;;;;5041460;28;20060;-66
2023/07/30 08:33:42;;;;;;;13.48;5.63;;;20.90;71.90;;;;;;5045814;28;20116;-66
2023/07/30 08:36:08;;;;;;;15.38;6.03;;;20.90;71.70;;;;;;5047011;28;20068;-66
2023/07/30 08:38:34;;;;;;;11.52;5.40;;;20.90;71.60;;;;;;5045190;28;20026;-66
2023/07/30 08:41:00;;;;;;;11.02;5.22;;;20.90;71.60;;;;;;5041757;28;20017;-67
2023/07/30 08:43:26;;;;;;;15.52;6.00;;;20.90;71.60;;;;;;5048660;28;20489;-67
2023/07/30 08:45:51;;;;;;;17.10;6.40;;;20.80;71.50;;;;;;5027686;28;20067;-66
2023/07/30 08:48:17;;;;;;;12.75;5.85;;;20.90;71.60;;;;;;5043672;28;20045;-67
2023/07/30 08:50:45;;;;;;;16.27;5.82;;;21.00;71.50;;;;;;5046996;28;20043;-67
2023/07/30 08:53:12;;;;;;;13.25;5.78;;;21.10;71.30;;;;;;5041227;28;20327;-67
2023/07/30 08:55:40;;;;;;;14.23;5.75;;;21.10;71.00;;;;;;5055255;28;20047;-66
2023/07/30 08:58:06;;;;;;;13.27;6.10;;;21.10;70.90;;;;;;5039398;28;20367;-66
2023/07/30 09:00:36;;;;;;;13.23;6.07;;;21.20;70.70;;;;;;5059199;28;20398;-67
2023/07/30 09:03:04;;;;;;;14.15;5.55;;;21.20;70.40;;;;;;5045693;28;20017;-66
2023/07/30 09:05:31;;;;;;;14.13;5.53;;;21.30;70.30;;;;;;5023363;28;20037;-67
2023/07/30 09:07:57;;;;;;;10.48;4.95;;;21.30;70.20;;;;;;5044266;28;20488;-67
2023/07/30 09:10:23;;;;;;;10.57;4.63;;;21.30;70.10;;;;;;5047140;28;20032;-67
2023/07/30 09:12:54;;;;;;;11.30;5.10;;;21.20;70.10;;;;;;5047583;28;20021;-66
2023/07/30 09:15:28;;;;;;;;;;;21.20;70.00;;;;;;5047938;28;20728;-66
2023/07/30 09:17:55;;;;;;;11.40;4.40;;;21.10;70.20;;;;;;5044585;28;20351;-67
2023/07/30 09:20:21;;;;;;;10.63;3.88;;;21.10;70.10;;;;;;5048922;28;20050;-66
2023/07/30 09:22:48;;;;;;;11.63;4.05;;;21.10;70.10;;;;;;5045898;28;20021;-67
2023/07/30 09:25:18;;;;;;;14.00;4.38;;;21.10;70.00;;;;;;5046208;28;20498;-67
2023/07/30 09:27:51;;;;;;;12.70;3.87;;;21.10;69.90;;;;;;5047504;28;20041;-67
2023/07/30 09:30:25;;;;;;;12.65;4.22;;;21.20;69.80;;;;;;5040720;28;20036;-67
2023/07/30 09:32:53;;;;;;;14.57;3.95;;;21.30;69.50;;;;;;5040577;28;20439;-67
2023/07/30 09:35:19;;;;;;;11.70;4.47;;;21.50;69.20;;;;;;5039726;28;20044;-67
2023/07/30 09:37:45;;;;;;;9.98;3.75;;;21.70;68.80;;;;;;5041560;28;20116;-66
2023/07/30 09:40:13;;;;;;;12.18;3.90;;;21.70;68.50;;;;;;5057939;28;20175;-66
2023/07/30 09:42:43;;;;;;;13.63;4.03;;;22.00;68.10;;;;;;5032068;28;20024;-67
2023/07/30 09:45:23;;;;;;;10.85;3.60;;;22.30;67.70;;;;;;5059373;28;20469;-67
2023/07/30 09:47:54;;;;;;;11.40;3.80;;;22.50;67.00;;;;;;5044620;28;20060;-67
2023/07/30 09:50:20;;;;;;;8.77;3.08;;;22.70;66.50;;;;;;5041402;28;20306;-68
2023/07/30 09:52:46;;;;;;;12.18;3.28;;;23.00;66.00;;;;;;5041671;28;20090;-68
2023/07/30 09:55:12;;;;;;;9.45;3.70;;;23.20;65.50;;;;;;5043959;28;20452;-68
2023/07/30 09:57:38;;;;;;;8.80;2.92;;;23.40;64.90;;;;;;5046382;28;20029;-68
2023/07/30 10:00:08;;;;;;;9.65;2.83;;;23.60;64.20;;;;;;5021889;28;20040;-67
2023/07/30 10:02:39;;;;;;;8.95;3.17;;;23.50;63.80;;;;;;5046974;28;20025;-66
2023/07/30 10:05:11;;;;;;;9.15;3.30;;;23.30;63.50;;;;;;5044512;28;20361;-67
2023/07/30 10:07:42;;;;;;;6.45;2.60;;;23.00;63.50;;;;;;5041335;28;20028;-67
2023/07/30 10:10:09;;;;;;;11.02;2.80;;;22.80;63.80;;;;;;5043728;28;20065;-67
2023/07/30 10:12:37;;;;;;;9.55;3.40;;;22.50;64.20;;;;;;5045855;28;20024;-67
2023/07/30 10:15:03;;;;;;;11.35;3.30;;;22.30;64.60;;;;;;5043838;28;20079;-67
2023/07/30 10:17:31;;;;;;;8.43;2.83;;;22.10;65.10;;;;;;5049739;28;20041;-67
2023/07/30 10:20:17;;;;;;;9.18;3.28;;;21.80;65.60;;;;;;5048329;28;20361;-67
2023/07/30 10:22:45;;;;;;;10.23;3.33;;;21.60;66.10;;;;;;5048926;28;20140;-67
2023/07/30 10:25:13;;;;;;;9.57;3.40;;;21.50;66.50;;;;;;5048710;28;20025;-67
2023/07/30 10:27:40;;;;;;;7.50;2.75;;;21.40;66.90;;;;;;5043998;28;20067;-67
2023/07/30 10:30:09;;;;;;;9.80;2.67;;;21.30;67.10;;;;;;5041895;28;20420;-67
2023/07/30 10:32:59;;;;;;;7.63;2.63;;;21.30;67.10;;;;;;5041219;28;20472;-67
2023/07/30 10:35:48;;;;;;;8.90;2.85;;;21.40;67.00;;;;;;5043686;28;20048;-67
2023/07/30 10:38:20;;;;;;;9.18;2.40;;;21.50;66.70;;;;;;5061895;28;20037;-67
2023/07/30 10:41:02;;;;;;;7.35;2.70;;;21.60;66.30;;;;;;5046477;28;20032;-67
2023/07/30 10:43:49;;;;;;;7.45;2.42;;;21.70;66.00;;;;;;5048047;28;20510;-67
2023/07/30 10:46:19;;;;;;;6.50;2.28;;;21.70;65.80;;;;;;5048207;28;20059;-66
2023/07/30 10:48:46;;;;;;;8.02;2.53;;;21.80;65.70;;;;;;5047083;28;20033;-67
2023/07/30 10:51:15;;;;;;;8.95;2.50;;;21.80;65.50;;;;;;5049267;28;20037;-67
2023/07/30 10:53:48;;;;;;;10.25;2.42;;;21.80;65.30;;;;;;5047159;28;20075;-67
2023/07/30 10:56:18;;;;;;;5.00;1.45;;;21.90;65.10;;;;;;5049389;28;20128;-67
2023/07/30 10:58:50;;;;;;;5.60;1.90;;;21.90;65.00;;;;;;5053224;28;20035;-67
2023/07/30 11:01:16;;;;;;;6.47;1.77;;;22.00;64.60;;;;;;5033731;28;20021;-67
2023/07/30 11:03:42;;;;;;;7.72;2.20;;;22.20;64.50;;;;;;5044407;28;20025;-67
2023/07/30 11:06:10;;;;;;;9.00;2.25;;;22.30;64.20;;;;;;5050601;28;20037;-67
2023/07/30 11:08:41;;;;;;;7.35;1.90;;;22.50;63.90;;;;;;5050440;28;20335;-67
2023/07/30 11:11:09;;;;;;;5.55;1.60;;;22.80;63.10;;;;;;5052269;28;20076;-67
2023/07/30 11:13:41;;;;;;;6.13;1.90;;;23.20;62.80;;;;;;5063937;28;20041;-67
2023/07/30 11:16:08;;;;;;;6.00;1.90;;;23.40;62.50;;;;;;5042979;28;20035;-67
2023/07/30 11:18:35;;;;;;;8.07;1.95;;;23.40;63.10;;;;;;5050809;28;20194;-67
2023/07/30 11:21:13;;;;;;;7.10;2.03;;;23.30;62.40;;;;;;5065347;28;20053;-67
2023/07/30 11:23:44;;;;;;;7.38;2.13;;;23.20;62.50;;;;;;5042242;28;20029;-67
2023/07/30 11:26:17;;;;;;;6.70;1.85;;;23.20;62.50;;;;;;5048492;28;20024;-67
2023/07/30 11:28:44;;;;;;;8.00;2.33;;;23.30;62.50;;;;;;5042925;28;20349;-67
2023/07/30 11:31:15;;;;;;;7.68;2.15;;;23.40;62.40;;;;;;5045252;28;20044;-67
2023/07/30 11:33:46;;;;;;;7.40;1.85;;;23.50;62.20;;;;;;5048977;28;20036;-67
2023/07/30 11:36:19;;;;;;;;;;;23.60;62.20;;;;;;5049125;28;20029;-67
2023/07/30 11:38:46;;;;;;;7.07;1.70;;;23.90;62.10;;;;;;5042750;28;19982;-67
2023/07/30 11:41:12;;;;;;;7.32;1.80;;;24.20;61.40;;;;;;5056345;28;20025;-67
2023/07/30 11:43:41;;;;;;;7.75;1.90;;;24.30;60.70;;;;;;5056345;28;20036;-67
2023/07/30 11:46:15;;;;;;;5.60;1.67;;;24.50;60.20;;;;;;5054073;28;20051;-67
2023/07/30 11:48:43;;;;;;;6.38;1.80;;;24.60;59.60;;;;;;5055644;28;20053;-67
2023/07/30 11:51:24;;;;;;;7.00;1.67;;;24.60;60.10;;;;;;5055517;28;20029;-67
2023/07/30 11:54:01;;;;;;;5.65;1.45;;;24.40;59.40;;;;;;5054995;28;20029;-67
2023/07/30 11:56:31;;;;;;;7.47;1.85;;;24.20;59.60;;;;;;5054708;28;20429;-67
2023/07/30 11:59:07;;;;;;;7.07;2.13;;;24.00;59.70;;;;;;5069410;28;20104;-67
2023/07/30 12:01:36;;;;;;;7.03;1.83;;;23.70;59.60;;;;;;5056510;28;20080;-67
2023/07/30 12:04:03;;;;;;;6.55;1.80;;;23.60;59.80;;;;;;5056187;28;20090;-67
2023/07/30 12:06:44;;;;;;;5.80;1.88;;;23.40;59.70;;;;;;5051865;28;20033;-67
2023/07/30 12:09:12;;;;;;;5.72;1.70;;;23.30;59.80;;;;;;5037562;28;20052;-67
2023/07/30 12:11:50;;;;;;;8.40;1.75;;;23.20;60.10;;;;;;5043704;28;20037;-67
2023/07/30 12:14:16;;;;;;;6.10;1.50;;;23.20;60.10;;;;;;5054738;28;20044;-67
2023/07/30 12:16:42;;;;;;;7.00;1.73;;;23.20;60.10;;;;;;5053399;28;20029;-67
2023/07/30 12:19:08;;;;;;;8.20;2.08;;;23.40;60.10;;;;;;5053396;28;20481;-67
2023/07/30 12:21:34;;;;;;;5.50;1.90;;;23.50;59.80;;;;;;5054822;28;20064;-67
2023/07/30 12:23:59;;;;;;;6.60;1.63;;;23.60;59.80;;;;;;5056240;28;20025;-67
2023/07/30 12:26:25;;;;;;;7.05;1.70;;;23.50;59.70;;;;;;5055638;28;20036;-67
2023/07/30 12:28:51;;;;;;;6.82;1.98;;;23.40;59.70;;;;;;5052879;28;20032;-67
2023/07/30 12:31:17;;;;;;;5.72;1.70;;;23.30;59.80;;;;;;5055827;28;20021;-67
2023/07/30 12:33:43;;;;;;;6.18;1.48;;;23.30;60.10;;;;;;5054875;28;20048;-67
2023/07/30 12:36:09;;;;;;;10.93;1.98;;;23.20;60.10;;;;;;5037733;28;20123;-67
2023/07/30 12:38:35;;;;;;;14.10;2.30;;;23.10;60.00;;;;;;5052735;28;20151;-67
2023/07/30 12:41:00;;;;;;;6.20;1.63;;;23.00;60.10;;;;;;5054279;28;20035;-67